sensor_id;sensor_type;location;lat;lon;timestamp;P1;durP1;ratioP1;P2;durP2;ratioP2
30287;SDS011;17103;48.316;11.558;2023-03-04T00:00:42;35.80;;;23.55;;
30287;SDS011;17103;48.316;11.558;2023-03-04T00:03:10;37.88;;;22.50;;
30287;SDS011;17103;48.316;11.558;2023-03-04T00:05:38;41.17;;;23.65;;
30287;SDS011;17103;48.316;11.558;2023-03-04T00:08:04;40.53;;;24.90;;
30287;SDS011;17103;48.316;11.558;2023-03-04T00:10:29;41.17;;;24.13;;
30287;SDS011;17103;48.316;11.558;2023-03-04T00:12:55;49.28;;;26.92;;
30287;SDS011;17103;48.316;11.558;2023-03-04T00:15:20;36.90;;;22.35;;
30287;SDS011;17103;48.316;11.558;2023-03-04T00:17:46;43.80;;;23.98;;
30287;SDS011;17103;48.316;11.558;2023-03-04T00:20:12;37.70;;;22.48;;
30287;SDS011;17103;48.316;11.558;2023-03-04T00:22:38;40.28;;;24.13;;
30287;SDS011;17103;48.316;11.558;2023-03-04T00:25:04;39.95;;;22.90;;
30287;SDS011;17103;48.316;11.558;2023-03-04T00:27:30;38.15;;;24.00;;
30287;SDS011;17103;48.316;11.558;2023-03-04T00:29:56;39.00;;;23.60;;
30287;SDS011;17103;48.316;11.558;2023-03-04T00:32:23;43.42;;;24.35;;
30287;SDS011;17103;48.316;11.558;2023-03-04T00:34:49;42.15;;;23.58;;
30287;SDS011;17103;48.316;11.558;2023-03-04T00:37:14;39.15;;;23.23;;
30287;SDS011;17103;48.316;11.558;2023-03-04T00:39:40;41.30;;;25.05;;
30287;SDS011;17103;48.316;11.558;2023-03-04T00:42:07;38.25;;;22.83;;
30287;SDS011;17103;48.316;11.558;2023-03-04T00:44:32;37.00;;;23.08;;
30287;SDS011;17103;48.316;11.558;2023-03-04T00:46:58;39.97;;;23.52;;
30287;SDS011;17103;48.316;11.558;2023-03-04T00:49:23;43.30;;;26.02;;
30287;SDS011;17103;48.316;11.558;2023-03-04T00:51:50;43.35;;;24.40;;
30287;SDS011;17103;48.316;11.558;2023-03-04T00:54:16;42.53;;;23.83;;
30287;SDS011;17103;48.316;11.558;2023-03-04T00:56:41;42.60;;;26.17;;
30287;SDS011;17103;48.316;11.558;2023-03-04T00:59:07;36.70;;;23.77;;
30287;SDS011;17103;48.316;11.558;2023-03-04T01:01:32;39.17;;;24.02;;
30287;SDS011;17103;48.316;11.558;2023-03-04T01:03:58;36.78;;;22.45;;
30287;SDS011;17103;48.316;11.558;2023-03-04T01:06:24;42.47;;;25.38;;
30287;SDS011;17103;48.316;11.558;2023-03-04T01:08:49;41.53;;;24.05;;
30287;SDS011;17103;48.316;11.558;2023-03-04T01:11:15;38.85;;;22.70;;
30287;SDS011;17103;48.316;11.558;2023-03-04T01:13:41;46.33;;;25.77;;
30287;SDS011;17103;48.316;11.558;2023-03-04T01:16:06;47.60;;;26.95;;
30287;SDS011;17103;48.316;11.558;2023-03-04T01:18:32;41.28;;;24.10;;
30287;SDS011;17103;48.316;11.558;2023-03-04T01:20:58;45.42;;;24.95;;
30287;SDS011;17103;48.316;11.558;2023-03-04T01:23:25;41.30;;;25.35;;
30287;SDS011;17103;48.316;11.558;2023-03-04T01:25:51;39.70;;;23.15;;
30287;SDS011;17103;48.316;11.558;2023-03-04T01:28:17;38.55;;;23.60;;
30287;SDS011;17103;48.316;11.558;2023-03-04T01:30:43;42.53;;;22.88;;
30287;SDS011;17103;48.316;11.558;2023-03-04T01:33:08;40.33;;;24.00;;
30287;SDS011;17103;48.316;11.558;2023-03-04T01:35:34;43.42;;;25.58;;
30287;SDS011;17103;48.316;11.558;2023-03-04T01:38:01;43.70;;;25.77;;
30287;SDS011;17103;48.316;11.558;2023-03-04T01:40:26;38.55;;;24.05;;
30287;SDS011;17103;48.316;11.558;2023-03-04T01:42:52;40.20;;;22.45;;
30287;SDS011;17103;48.316;11.558;2023-03-04T01:45:19;38.33;;;22.10;;
30287;SDS011;17103;48.316;11.558;2023-03-04T01:47:45;38.47;;;22.63;;
30287;SDS011;17103;48.316;11.558;2023-03-04T01:50:20;39.38;;;23.05;;
30287;SDS011;17103;48.316;11.558;2023-03-04T01:52:46;39.42;;;22.90;;
30287;SDS011;17103;48.316;11.558;2023-03-04T01:55:16;37.40;;;21.70;;
30287;SDS011;17103;48.316;11.558;2023-03-04T01:57:46;38.30;;;21.52;;
30287;SDS011;17103;48.316;11.558;2023-03-04T02:02:54;38.28;;;22.80;;
30287;SDS011;17103;48.316;11.558;2023-03-04T02:05:22;43.63;;;24.42;;
30287;SDS011;17103;48.316;11.558;2023-03-04T02:07:49;38.88;;;22.35;;
30287;SDS011;17103;48.316;11.558;2023-03-04T02:10:16;44.63;;;24.25;;
30287;SDS011;17103;48.316;11.558;2023-03-04T02:12:41;38.78;;;23.27;;
30287;SDS011;17103;48.316;11.558;2023-03-04T02:15:08;41.28;;;24.20;;
30287;SDS011;17103;48.316;11.558;2023-03-04T02:17:34;38.15;;;22.40;;
30287;SDS011;17103;48.316;11.558;2023-03-04T02:20:08;36.45;;;22.27;;
30287;SDS011;17103;48.316;11.558;2023-03-04T02:25:36;38.25;;;21.92;;
30287;SDS011;17103;48.316;11.558;2023-03-04T02:28:15;37.78;;;23.92;;
30287;SDS011;17103;48.316;11.558;2023-03-04T02:30:42;35.25;;;23.75;;
30287;SDS011;17103;48.316;11.558;2023-03-04T02:33:12;35.40;;;20.50;;
30287;SDS011;17103;48.316;11.558;2023-03-04T02:35:40;36.50;;;20.48;;
30287;SDS011;17103;48.316;11.558;2023-03-04T02:38:10;34.35;;;21.85;;
30287;SDS011;17103;48.316;11.558;2023-03-04T02:40:36;37.60;;;21.85;;
30287;SDS011;17103;48.316;11.558;2023-03-04T02:43:04;35.88;;;20.92;;
30287;SDS011;17103;48.316;11.558;2023-03-04T02:48:06;31.23;;;20.05;;
30287;SDS011;17103;48.316;11.558;2023-03-04T02:50:34;34.15;;;21.05;;
30287;SDS011;17103;48.316;11.558;2023-03-04T02:53:03;33.58;;;20.98;;
30287;SDS011;17103;48.316;11.558;2023-03-04T02:55:29;33.60;;;19.55;;
30287;SDS011;17103;48.316;11.558;2023-03-04T02:57:54;37.63;;;22.00;;
30287;SDS011;17103;48.316;11.558;2023-03-04T03:00:20;35.90;;;21.73;;
30287;SDS011;17103;48.316;11.558;2023-03-04T03:02:46;36.13;;;21.65;;
30287;SDS011;17103;48.316;11.558;2023-03-04T03:05:11;35.33;;;20.83;;
30287;SDS011;17103;48.316;11.558;2023-03-04T03:07:37;40.58;;;23.13;;
30287;SDS011;17103;48.316;11.558;2023-03-04T03:10:04;36.33;;;21.58;;
30287;SDS011;17103;48.316;11.558;2023-03-04T03:12:30;36.70;;;19.75;;
30287;SDS011;17103;48.316;11.558;2023-03-04T03:14:55;32.50;;;19.60;;
30287;SDS011;17103;48.316;11.558;2023-03-04T03:17:21;34.53;;;21.25;;
30287;SDS011;17103;48.316;11.558;2023-03-04T03:19:47;36.50;;;22.58;;
30287;SDS011;17103;48.316;11.558;2023-03-04T03:22:12;36.95;;;22.65;;
30287;SDS011;17103;48.316;11.558;2023-03-04T03:24:38;41.95;;;24.27;;
30287;SDS011;17103;48.316;11.558;2023-03-04T03:27:03;35.17;;;20.98;;
30287;SDS011;17103;48.316;11.558;2023-03-04T03:29:29;37.25;;;20.88;;
30287;SDS011;17103;48.316;11.558;2023-03-04T03:31:55;35.47;;;22.02;;
30287;SDS011;17103;48.316;11.558;2023-03-04T03:34:21;34.40;;;20.65;;
30287;SDS011;17103;48.316;11.558;2023-03-04T03:36:47;37.05;;;20.98;;
30287;SDS011;17103;48.316;11.558;2023-03-04T03:39:12;33.63;;;20.95;;
30287;SDS011;17103;48.316;11.558;2023-03-04T03:41:39;32.55;;;19.35;;
30287;SDS011;17103;48.316;11.558;2023-03-04T03:44:06;38.67;;;22.27;;
30287;SDS011;17103;48.316;11.558;2023-03-04T03:46:32;31.65;;;19.75;;
30287;SDS011;17103;48.316;11.558;2023-03-04T03:48:59;32.10;;;19.77;;
30287;SDS011;17103;48.316;11.558;2023-03-04T03:51:25;34.28;;;19.98;;
30287;SDS011;17103;48.316;11.558;2023-03-04T03:53:51;35.53;;;20.45;;
30287;SDS011;17103;48.316;11.558;2023-03-04T03:56:16;32.30;;;20.38;;
30287;SDS011;17103;48.316;11.558;2023-03-04T03:58:42;32.05;;;19.27;;
30287;SDS011;17103;48.316;11.558;2023-03-04T04:01:08;33.90;;;20.90;;
30287;SDS011;17103;48.316;11.558;2023-03-04T04:03:34;31.80;;;18.42;;
30287;SDS011;17103;48.316;11.558;2023-03-04T04:05:59;31.77;;;19.73;;
30287;SDS011;17103;48.316;11.558;2023-03-04T04:08:25;31.77;;;19.38;;
30287;SDS011;17103;48.316;11.558;2023-03-04T04:10:51;34.45;;;21.15;;
30287;SDS011;17103;48.316;11.558;2023-03-04T04:13:17;33.20;;;20.38;;
30287;SDS011;17103;48.316;11.558;2023-03-04T04:15:43;37.85;;;21.88;;
30287;SDS011;17103;48.316;11.558;2023-03-04T04:18:09;32.78;;;20.38;;
30287;SDS011;17103;48.316;11.558;2023-03-04T04:20:34;34.88;;;19.92;;
30287;SDS011;17103;48.316;11.558;2023-03-04T04:23:00;34.40;;;20.85;;
30287;SDS011;17103;48.316;11.558;2023-03-04T04:25:27;34.40;;;21.00;;
30287;SDS011;17103;48.316;11.558;2023-03-04T04:27:52;35.78;;;20.38;;
30287;SDS011;17103;48.316;11.558;2023-03-04T04:30:18;34.50;;;21.45;;
30287;SDS011;17103;48.316;11.558;2023-03-04T04:32:44;38.75;;;23.25;;
30287;SDS011;17103;48.316;11.558;2023-03-04T04:35:09;38.78;;;21.42;;
30287;SDS011;17103;48.316;11.558;2023-03-04T04:37:35;33.30;;;19.63;;
30287;SDS011;17103;48.316;11.558;2023-03-04T04:40:01;36.25;;;20.95;;
30287;SDS011;17103;48.316;11.558;2023-03-04T04:42:27;30.95;;;19.17;;
30287;SDS011;17103;48.316;11.558;2023-03-04T04:44:54;32.13;;;19.63;;
30287;SDS011;17103;48.316;11.558;2023-03-04T04:47:21;32.05;;;20.27;;
30287;SDS011;17103;48.316;11.558;2023-03-04T04:49:47;36.58;;;20.77;;
30287;SDS011;17103;48.316;11.558;2023-03-04T04:52:12;60.72;;;28.75;;
30287;SDS011;17103;48.316;11.558;2023-03-04T04:54:38;51.20;;;27.67;;
30287;SDS011;17103;48.316;11.558;2023-03-04T04:57:03;46.50;;;25.08;;
30287;SDS011;17103;48.316;11.558;2023-03-04T04:59:30;48.55;;;26.15;;
30287;SDS011;17103;48.316;11.558;2023-03-04T05:01:56;45.08;;;25.58;;
30287;SDS011;17103;48.316;11.558;2023-03-04T05:04:21;46.95;;;26.45;;
30287;SDS011;17103;48.316;11.558;2023-03-04T05:06:47;41.30;;;23.10;;
30287;SDS011;17103;48.316;11.558;2023-03-04T05:09:13;41.47;;;22.17;;
30287;SDS011;17103;48.316;11.558;2023-03-04T05:11:39;36.53;;;20.80;;
30287;SDS011;17103;48.316;11.558;2023-03-04T05:14:05;36.72;;;21.83;;
30287;SDS011;17103;48.316;11.558;2023-03-04T05:16:30;39.38;;;21.25;;
30287;SDS011;17103;48.316;11.558;2023-03-04T05:18:57;39.33;;;23.55;;
30287;SDS011;17103;48.316;11.558;2023-03-04T05:21:22;41.22;;;21.95;;
30287;SDS011;17103;48.316;11.558;2023-03-04T05:23:50;34.35;;;21.85;;
30287;SDS011;17103;48.316;11.558;2023-03-04T05:26:16;35.67;;;20.92;;
30287;SDS011;17103;48.316;11.558;2023-03-04T05:28:43;33.03;;;20.30;;
30287;SDS011;17103;48.316;11.558;2023-03-04T05:31:09;31.83;;;21.02;;
30287;SDS011;17103;48.316;11.558;2023-03-04T05:33:36;33.70;;;20.20;;
30287;SDS011;17103;48.316;11.558;2023-03-04T05:36:03;30.52;;;19.05;;
30287;SDS011;17103;48.316;11.558;2023-03-04T05:38:29;35.13;;;21.55;;
30287;SDS011;17103;48.316;11.558;2023-03-04T05:40:58;35.88;;;21.52;;
30287;SDS011;17103;48.316;11.558;2023-03-04T05:43:26;31.08;;;19.02;;
30287;SDS011;17103;48.316;11.558;2023-03-04T05:45:53;33.83;;;20.83;;
30287;SDS011;17103;48.316;11.558;2023-03-04T05:48:22;29.65;;;19.15;;
30287;SDS011;17103;48.316;11.558;2023-03-04T05:50:55;35.13;;;22.55;;
30287;SDS011;17103;48.316;11.558;2023-03-04T05:53:22;37.97;;;21.45;;
30287;SDS011;17103;48.316;11.558;2023-03-04T05:55:48;33.45;;;21.27;;
30287;SDS011;17103;48.316;11.558;2023-03-04T05:58:14;35.45;;;21.77;;
30287;SDS011;17103;48.316;11.558;2023-03-04T06:00:41;30.90;;;18.27;;
30287;SDS011;17103;48.316;11.558;2023-03-04T06:03:07;36.08;;;22.45;;
30287;SDS011;17103;48.316;11.558;2023-03-04T06:05:41;39.67;;;23.25;;
30287;SDS011;17103;48.316;11.558;2023-03-04T06:08:08;40.17;;;22.75;;
30287;SDS011;17103;48.316;11.558;2023-03-04T06:10:34;40.63;;;22.42;;
30287;SDS011;17103;48.316;11.558;2023-03-04T06:12:59;38.95;;;23.48;;
30287;SDS011;17103;48.316;11.558;2023-03-04T06:15:25;37.63;;;23.08;;
30287;SDS011;17103;48.316;11.558;2023-03-04T06:17:51;40.10;;;22.58;;
30287;SDS011;17103;48.316;11.558;2023-03-04T06:20:16;38.30;;;22.45;;
30287;SDS011;17103;48.316;11.558;2023-03-04T06:22:42;40.05;;;24.08;;
30287;SDS011;17103;48.316;11.558;2023-03-04T06:25:08;38.10;;;23.33;;
30287;SDS011;17103;48.316;11.558;2023-03-04T06:27:33;39.55;;;22.88;;
30287;SDS011;17103;48.316;11.558;2023-03-04T06:29:59;40.97;;;23.92;;
30287;SDS011;17103;48.316;11.558;2023-03-04T06:32:26;38.05;;;22.10;;
30287;SDS011;17103;48.316;11.558;2023-03-04T06:34:52;42.22;;;24.45;;
30287;SDS011;17103;48.316;11.558;2023-03-04T06:37:18;40.33;;;24.00;;
30287;SDS011;17103;48.316;11.558;2023-03-04T06:39:44;44.75;;;23.33;;
30287;SDS011;17103;48.316;11.558;2023-03-04T06:42:10;38.85;;;22.35;;
30287;SDS011;17103;48.316;11.558;2023-03-04T06:44:36;37.67;;;21.45;;
30287;SDS011;17103;48.316;11.558;2023-03-04T06:47:01;41.70;;;22.63;;
30287;SDS011;17103;48.316;11.558;2023-03-04T06:49:27;38.40;;;22.65;;
30287;SDS011;17103;48.316;11.558;2023-03-04T06:51:53;42.80;;;22.63;;
30287;SDS011;17103;48.316;11.558;2023-03-04T06:54:18;37.90;;;21.25;;
30287;SDS011;17103;48.316;11.558;2023-03-04T06:56:44;39.58;;;21.98;;
30287;SDS011;17103;48.316;11.558;2023-03-04T06:59:10;41.05;;;23.15;;
30287;SDS011;17103;48.316;11.558;2023-03-04T07:01:35;41.90;;;22.63;;
30287;SDS011;17103;48.316;11.558;2023-03-04T07:04:02;40.30;;;22.25;;
30287;SDS011;17103;48.316;11.558;2023-03-04T07:06:28;41.45;;;25.15;;
30287;SDS011;17103;48.316;11.558;2023-03-04T07:08:54;40.63;;;23.20;;
30287;SDS011;17103;48.316;11.558;2023-03-04T07:11:21;41.83;;;23.33;;
30287;SDS011;17103;48.316;11.558;2023-03-04T07:13:47;44.15;;;24.55;;
30287;SDS011;17103;48.316;11.558;2023-03-04T07:16:15;46.33;;;23.10;;
30287;SDS011;17103;48.316;11.558;2023-03-04T07:18:42;42.30;;;23.90;;
30287;SDS011;17103;48.316;11.558;2023-03-04T07:21:08;38.55;;;21.48;;
30287;SDS011;17103;48.316;11.558;2023-03-04T07:23:34;37.35;;;21.60;;
30287;SDS011;17103;48.316;11.558;2023-03-04T07:26:00;45.20;;;25.00;;
30287;SDS011;17103;48.316;11.558;2023-03-04T07:28:26;41.53;;;22.85;;
30287;SDS011;17103;48.316;11.558;2023-03-04T07:30:52;39.70;;;22.92;;
30287;SDS011;17103;48.316;11.558;2023-03-04T07:33:23;44.47;;;23.73;;
30287;SDS011;17103;48.316;11.558;2023-03-04T07:35:48;42.83;;;24.08;;
30287;SDS011;17103;48.316;11.558;2023-03-04T07:38:23;47.28;;;24.73;;
30287;SDS011;17103;48.316;11.558;2023-03-04T07:40:53;44.83;;;24.30;;
30287;SDS011;17103;48.316;11.558;2023-03-04T07:43:21;50.05;;;26.17;;
30287;SDS011;17103;48.316;11.558;2023-03-04T07:45:48;44.03;;;24.77;;
30287;SDS011;17103;48.316;11.558;2023-03-04T07:48:16;43.63;;;25.30;;
30287;SDS011;17103;48.316;11.558;2023-03-04T07:50:41;40.42;;;23.02;;
30287;SDS011;17103;48.316;11.558;2023-03-04T07:53:07;49.72;;;26.25;;
30287;SDS011;17103;48.316;11.558;2023-03-04T07:55:33;48.53;;;25.05;;
30287;SDS011;17103;48.316;11.558;2023-03-04T07:57:58;39.88;;;23.13;;
30287;SDS011;17103;48.316;11.558;2023-03-04T08:00:24;42.15;;;23.10;;
30287;SDS011;17103;48.316;11.558;2023-03-04T08:02:51;43.22;;;26.17;;
30287;SDS011;17103;48.316;11.558;2023-03-04T08:05:17;40.88;;;21.90;;
30287;SDS011;17103;48.316;11.558;2023-03-04T08:07:43;37.88;;;22.42;;
30287;SDS011;17103;48.316;11.558;2023-03-04T08:10:10;42.70;;;23.10;;
30287;SDS011;17103;48.316;11.558;2023-03-04T08:12:35;41.20;;;23.77;;
30287;SDS011;17103;48.316;11.558;2023-03-04T08:15:02;40.38;;;22.63;;
30287;SDS011;17103;48.316;11.558;2023-03-04T08:17:28;36.78;;;20.98;;
30287;SDS011;17103;48.316;11.558;2023-03-04T08:19:54;37.85;;;22.30;;
30287;SDS011;17103;48.316;11.558;2023-03-04T08:22:21;38.20;;;21.13;;
30287;SDS011;17103;48.316;11.558;2023-03-04T08:24:46;46.28;;;25.35;;
30287;SDS011;17103;48.316;11.558;2023-03-04T08:27:12;39.22;;;20.63;;
30287;SDS011;17103;48.316;11.558;2023-03-04T08:29:38;39.58;;;21.73;;
30287;SDS011;17103;48.316;11.558;2023-03-04T08:32:04;36.58;;;20.42;;
30287;SDS011;17103;48.316;11.558;2023-03-04T08:34:30;34.88;;;19.73;;
30287;SDS011;17103;48.316;11.558;2023-03-04T08:36:58;35.22;;;18.85;;
30287;SDS011;17103;48.316;11.558;2023-03-04T08:39:23;35.53;;;19.55;;
30287;SDS011;17103;48.316;11.558;2023-03-04T08:41:49;33.63;;;20.65;;
30287;SDS011;17103;48.316;11.558;2023-03-04T08:44:15;34.25;;;19.60;;
30287;SDS011;17103;48.316;11.558;2023-03-04T08:46:41;29.55;;;17.77;;
30287;SDS011;17103;48.316;11.558;2023-03-04T08:49:07;33.47;;;19.48;;
30287;SDS011;17103;48.316;11.558;2023-03-04T08:51:35;34.05;;;19.98;;
30287;SDS011;17103;48.316;11.558;2023-03-04T08:54:02;30.85;;;17.63;;
30287;SDS011;17103;48.316;11.558;2023-03-04T08:56:29;33.20;;;18.33;;
30287;SDS011;17103;48.316;11.558;2023-03-04T08:58:54;34.42;;;19.13;;
30287;SDS011;17103;48.316;11.558;2023-03-04T09:01:20;37.72;;;19.30;;
30287;SDS011;17103;48.316;11.558;2023-03-04T09:03:46;34.75;;;20.23;;
30287;SDS011;17103;48.316;11.558;2023-03-04T09:06:12;34.25;;;19.25;;
30287;SDS011;17103;48.316;11.558;2023-03-04T09:08:42;35.40;;;19.70;;
30287;SDS011;17103;48.316;11.558;2023-03-04T09:11:08;31.52;;;18.83;;
30287;SDS011;17103;48.316;11.558;2023-03-04T09:13:35;31.33;;;20.20;;
30287;SDS011;17103;48.316;11.558;2023-03-04T09:16:01;34.55;;;19.52;;
30287;SDS011;17103;48.316;11.558;2023-03-04T09:18:28;31.25;;;18.50;;
30287;SDS011;17103;48.316;11.558;2023-03-04T09:20:54;32.00;;;18.05;;
30287;SDS011;17103;48.316;11.558;2023-03-04T09:23:19;28.80;;;16.98;;
30287;SDS011;17103;48.316;11.558;2023-03-04T09:25:47;33.67;;;18.80;;
30287;SDS011;17103;48.316;11.558;2023-03-04T09:28:13;26.98;;;16.23;;
30287;SDS011;17103;48.316;11.558;2023-03-04T09:30:40;30.80;;;17.13;;
30287;SDS011;17103;48.316;11.558;2023-03-04T09:33:06;32.92;;;17.05;;
30287;SDS011;17103;48.316;11.558;2023-03-04T09:35:32;27.33;;;15.75;;
30287;SDS011;17103;48.316;11.558;2023-03-04T09:37:58;29.48;;;16.25;;
30287;SDS011;17103;48.316;11.558;2023-03-04T09:40:29;28.23;;;15.32;;
30287;SDS011;17103;48.316;11.558;2023-03-04T09:43:09;24.83;;;14.20;;
30287;SDS011;17103;48.316;11.558;2023-03-04T09:45:45;25.38;;;14.95;;
30287;SDS011;17103;48.316;11.558;2023-03-04T09:48:22;26.20;;;14.00;;
30287;SDS011;17103;48.316;11.558;2023-03-04T09:53:55;28.77;;;15.27;;
30287;SDS011;17103;48.316;11.558;2023-03-04T09:56:30;23.35;;;13.50;;
30287;SDS011;17103;48.316;11.558;2023-03-04T10:01:57;27.48;;;15.13;;
30287;SDS011;17103;48.316;11.558;2023-03-04T10:04:36;27.77;;;16.73;;
30287;SDS011;17103;48.316;11.558;2023-03-04T10:07:12;24.47;;;13.20;;
30287;SDS011;17103;48.316;11.558;2023-03-04T10:09:46;23.73;;;14.32;;
30287;SDS011;17103;48.316;11.558;2023-03-04T10:15:00;27.27;;;14.77;;
30287;SDS011;17103;48.316;11.558;2023-03-04T10:17:39;21.67;;;13.70;;
30287;SDS011;17103;48.316;11.558;2023-03-04T10:23:26;26.40;;;13.75;;
30287;SDS011;17103;48.316;11.558;2023-03-04T10:25:54;21.10;;;13.27;;
30287;SDS011;17103;48.316;11.558;2023-03-04T10:28:41;22.83;;;12.80;;
30287;SDS011;17103;48.316;11.558;2023-03-04T10:34:04;29.88;;;12.65;;
30287;SDS011;17103;48.316;11.558;2023-03-04T10:39:18;18.27;;;11.70;;
30287;SDS011;17103;48.316;11.558;2023-03-04T10:42:33;18.55;;;10.90;;
30287;SDS011;17103;48.316;11.558;2023-03-04T10:44:44;17.67;;;11.45;;
30287;SDS011;17103;48.316;11.558;2023-03-04T10:47:16;20.63;;;11.80;;
30287;SDS011;17103;48.316;11.558;2023-03-04T10:49:52;15.55;;;10.18;;
30287;SDS011;17103;48.316;11.558;2023-03-04T10:54:54;20.08;;;10.60;;
30287;SDS011;17103;48.316;11.558;2023-03-04T10:57:37;17.92;;;9.70;;
30287;SDS011;17103;48.316;11.558;2023-03-04T11:05:45;18.23;;;10.07;;
30287;SDS011;17103;48.316;11.558;2023-03-04T11:08:17;18.33;;;10.90;;
30287;SDS011;17103;48.316;11.558;2023-03-04T11:10:45;16.70;;;10.45;;
30287;SDS011;17103;48.316;11.558;2023-03-04T11:13:15;17.40;;;9.30;;
30287;SDS011;17103;48.316;11.558;2023-03-04T11:18:28;14.50;;;10.07;;
30287;SDS011;17103;48.316;11.558;2023-03-04T11:21:05;14.75;;;9.57;;
30287;SDS011;17103;48.316;11.558;2023-03-04T11:23:39;15.60;;;8.90;;
30287;SDS011;17103;48.316;11.558;2023-03-04T11:26:20;19.15;;;9.70;;
30287;SDS011;17103;48.316;11.558;2023-03-04T11:33:20;15.52;;;9.65;;
30287;SDS011;17103;48.316;11.558;2023-03-04T11:42:50;15.27;;;9.02;;
30287;SDS011;17103;48.316;11.558;2023-03-04T11:45:26;17.05;;;9.13;;
30287;SDS011;17103;48.316;11.558;2023-03-04T11:48:44;18.08;;;10.65;;
30287;SDS011;17103;48.316;11.558;2023-03-04T11:51:10;14.48;;;8.93;;
30287;SDS011;17103;48.316;11.558;2023-03-04T11:54:11;17.70;;;9.40;;
30287;SDS011;17103;48.316;11.558;2023-03-04T11:56:53;13.93;;;8.45;;
30287;SDS011;17103;48.316;11.558;2023-03-04T12:16:08;15.80;;;8.50;;
30287;SDS011;17103;48.316;11.558;2023-03-04T12:21:43;17.13;;;9.38;;
30287;SDS011;17103;48.316;11.558;2023-03-04T12:32:40;15.50;;;8.95;;
30287;SDS011;17103;48.316;11.558;2023-03-04T12:41:35;16.05;;;8.10;;
30287;SDS011;17103;48.316;11.558;2023-03-04T12:43:39;18.98;;;8.93;;
30287;SDS011;17103;48.316;11.558;2023-03-04T12:55:06;16.13;;;9.05;;
30287;SDS011;17103;48.316;11.558;2023-03-04T12:57:41;17.48;;;10.18;;
30287;SDS011;17103;48.316;11.558;2023-03-04T13:08:14;20.42;;;10.95;;
30287;SDS011;17103;48.316;11.558;2023-03-04T13:10:59;16.80;;;8.98;;
30287;SDS011;17103;48.316;11.558;2023-03-04T13:16:27;17.45;;;10.15;;
30287;SDS011;17103;48.316;11.558;2023-03-04T13:18:52;15.80;;;8.93;;
30287;SDS011;17103;48.316;11.558;2023-03-04T13:21:22;16.67;;;9.75;;
30287;SDS011;17103;48.316;11.558;2023-03-04T13:23:50;16.10;;;7.13;;
30287;SDS011;17103;48.316;11.558;2023-03-04T13:26:32;18.42;;;10.57;;
30287;SDS011;17103;48.316;11.558;2023-03-04T13:29:10;14.57;;;9.00;;
30287;SDS011;17103;48.316;11.558;2023-03-04T13:32:09;18.50;;;9.63;;
30287;SDS011;17103;48.316;11.558;2023-03-04T13:34:43;17.90;;;9.90;;
30287;SDS011;17103;48.316;11.558;2023-03-04T13:37:30;18.27;;;10.20;;
30287;SDS011;17103;48.316;11.558;2023-03-04T13:42:44;13.88;;;8.55;;
30287;SDS011;17103;48.316;11.558;2023-03-04T13:45:31;15.43;;;8.35;;
30287;SDS011;17103;48.316;11.558;2023-03-04T13:47:59;13.43;;;8.13;;
30287;SDS011;17103;48.316;11.558;2023-03-04T13:50:33;16.17;;;9.05;;
30287;SDS011;17103;48.316;11.558;2023-03-04T13:53:28;15.45;;;8.25;;
30287;SDS011;17103;48.316;11.558;2023-03-04T13:58:36;13.65;;;8.05;;
30287;SDS011;17103;48.316;11.558;2023-03-04T14:01:05;13.75;;;8.32;;
30287;SDS011;17103;48.316;11.558;2023-03-04T14:03:55;16.50;;;9.73;;
30287;SDS011;17103;48.316;11.558;2023-03-04T14:08:49;14.20;;;8.43;;
30287;SDS011;17103;48.316;11.558;2023-03-04T14:13:51;14.65;;;8.85;;
30287;SDS011;17103;48.316;11.558;2023-03-04T14:16:20;15.65;;;9.05;;
30287;SDS011;17103;48.316;11.558;2023-03-04T14:18:58;12.75;;;7.85;;
30287;SDS011;17103;48.316;11.558;2023-03-04T14:21:27;13.32;;;8.00;;
30287;SDS011;17103;48.316;11.558;2023-03-04T14:24:04;13.77;;;8.75;;
30287;SDS011;17103;48.316;11.558;2023-03-04T14:26:33;15.20;;;9.18;;
30287;SDS011;17103;48.316;11.558;2023-03-04T14:28:59;14.18;;;9.00;;
30287;SDS011;17103;48.316;11.558;2023-03-04T14:31:27;14.48;;;9.25;;
30287;SDS011;17103;48.316;11.558;2023-03-04T14:33:56;14.40;;;8.55;;
30287;SDS011;17103;48.316;11.558;2023-03-04T14:36:27;14.93;;;9.25;;
30287;SDS011;17103;48.316;11.558;2023-03-04T14:39:01;15.77;;;9.60;;
30287;SDS011;17103;48.316;11.558;2023-03-04T14:41:34;15.40;;;9.52;;
30287;SDS011;17103;48.316;11.558;2023-03-04T14:46:57;19.02;;;9.75;;
30287;SDS011;17103;48.316;11.558;2023-03-04T14:49:31;16.73;;;9.63;;
30287;SDS011;17103;48.316;11.558;2023-03-04T14:51:59;17.08;;;9.55;;
30287;SDS011;17103;48.316;11.558;2023-03-04T14:54:35;21.10;;;9.93;;
30287;SDS011;17103;48.316;11.558;2023-03-04T14:57:18;15.05;;;8.45;;
30287;SDS011;17103;48.316;11.558;2023-03-04T14:59:50;14.93;;;8.75;;
30287;SDS011;17103;48.316;11.558;2023-03-04T15:05:09;17.83;;;9.75;;
30287;SDS011;17103;48.316;11.558;2023-03-04T15:07:41;16.00;;;9.35;;
30287;SDS011;17103;48.316;11.558;2023-03-04T15:10:09;15.07;;;9.30;;
30287;SDS011;17103;48.316;11.558;2023-03-04T15:12:39;15.40;;;9.45;;
30287;SDS011;17103;48.316;11.558;2023-03-04T15:18:13;15.60;;;9.80;;
30287;SDS011;17103;48.316;11.558;2023-03-04T15:20:42;18.35;;;9.57;;
30287;SDS011;17103;48.316;11.558;2023-03-04T15:23:20;15.88;;;9.68;;
30287;SDS011;17103;48.316;11.558;2023-03-04T15:25:49;15.85;;;9.07;;
30287;SDS011;17103;48.316;11.558;2023-03-04T15:28:17;14.32;;;8.68;;
30287;SDS011;17103;48.316;11.558;2023-03-04T15:30:43;16.38;;;8.93;;
30287;SDS011;17103;48.316;11.558;2023-03-04T15:33:09;16.33;;;8.75;;
30287;SDS011;17103;48.316;11.558;2023-03-04T15:35:36;20.13;;;10.25;;
30287;SDS011;17103;48.316;11.558;2023-03-04T15:38:02;12.45;;;8.15;;
30287;SDS011;17103;48.316;11.558;2023-03-04T15:40:32;14.05;;;8.85;;
30287;SDS011;17103;48.316;11.558;2023-03-04T15:43:02;19.08;;;10.75;;
30287;SDS011;17103;48.316;11.558;2023-03-04T15:45:31;14.40;;;9.70;;
30287;SDS011;17103;48.316;11.558;2023-03-04T15:48:00;20.55;;;9.90;;
30287;SDS011;17103;48.316;11.558;2023-03-04T15:53:58;18.45;;;10.07;;
30287;SDS011;17103;48.316;11.558;2023-03-04T15:56:26;17.35;;;10.13;;
30287;SDS011;17103;48.316;11.558;2023-03-04T15:59:01;18.00;;;10.93;;
30287;SDS011;17103;48.316;11.558;2023-03-04T16:01:30;19.02;;;10.88;;
30287;SDS011;17103;48.316;11.558;2023-03-04T16:03:55;16.73;;;9.48;;
30287;SDS011;17103;48.316;11.558;2023-03-04T16:06:21;16.25;;;9.93;;
30287;SDS011;17103;48.316;11.558;2023-03-04T16:08:51;15.10;;;9.75;;
30287;SDS011;17103;48.316;11.558;2023-03-04T16:11:23;14.45;;;9.13;;
30287;SDS011;17103;48.316;11.558;2023-03-04T16:13:51;15.85;;;10.63;;
30287;SDS011;17103;48.316;11.558;2023-03-04T16:16:17;17.85;;;9.80;;
30287;SDS011;17103;48.316;11.558;2023-03-04T16:18:43;13.27;;;8.68;;
30287;SDS011;17103;48.316;11.558;2023-03-04T16:21:16;16.08;;;9.48;;
30287;SDS011;17103;48.316;11.558;2023-03-04T16:23:47;15.35;;;9.80;;